West Falls, New York
Current Conditions -  °F | °C
As of 10:54 PM on Friday 24 Oct 2014 (Local Time) from KBUF Reporting Station
Overcast Overcast  
Wind Chill: 50°   Ceiling: 6500
Heat Index: 50°   Visibility: 8mi
Dew Point: 45°   Wind: 6mph
Humidity: 83%   Direction: 180°S
Pressure: 29.95"   Gusts: NA
Location:  42.7°N, 78.68°W
Report Text: KBUF 250254Z 18005KT 8SM BKN065 OVC190 10/07 A2995 RMK AO2 SLP143 T01000072 58004
Loading
Personal Weather Stations






























Interactive Weather Map New forecast layout! Learn more

10-Day Weather Forecast

Advertisements
Track Severe Weather on mobile